Monday, January 21, 2019, 5:31 PM EST
Back to Local

KEWR, Newark International Airport

Location: Elizabeth, NJ, United States Lat: 40.683
Local Time: 5:31 PM EST (22:31 GMT) Lon: -74.167
Time Zone: US/Eastern Elev: 16 ft

Show me the last for .
Show Decoded

2019-01-21 16:51 METAR KEWR 212151Z 31021G30KT 10SM FEW050 FEW150 FEW250 M11/M22 A3020 RMK AO2 PK
                 WND 28036/2057 SLP225 T11061222 $ =
2019-01-21 15:51 METAR KEWR 212051Z 29026G37KT 10SM FEW050 FEW150 FEW250 M10/M22 A3015 RMK AO2 PK
                 WND 29037/2047 SLP210 T11001217 53015 $ =
2019-01-21 14:51 METAR KEWR 211951Z 30021G36KT 10SM FEW050 FEW150 SCT250 M10/M22 A3012 RMK AO2 PK
                 WND 27039/1937 SLP197 T11001217 $ =
2019-01-21 13:51 METAR KEWR 211851Z 29015G30KT 10SM FEW048 SCT150 SCT250 M10/M22 A3011 RMK AO2 PK
                 WND 28034/1823 SLP195 T11001217 $ =
2019-01-21 12:51 METAR KEWR 211751Z 30022G34KT 10SM SCT048 BKN150 BKN250 M11/M22 A3011 RMK AO2 PK
                 WND 28039/1709 SLP194 T11111217 11111 21156 53009 $ =
2019-01-21 11:51 METAR KEWR 211651Z 30020G31KT 10SM FEW045 BKN140 BKN250 M11/M22 A3009 RMK AO2 PK
                 WND 30034/1622 SLP190 T11111222 $ =
2019-01-21 10:51 METAR KEWR 211551Z 30024G37KT 10SM FEW045 SCT120 BKN250 M13/M23 A3009 RMK AO2 PK
                 WND 29037/1542 SLP188 T11331233 $ =
2019-01-21 09:51 METAR KEWR 211451Z 30024G33KT 10SM FEW041 SCT100 BKN250 M14/M24 A3008 RMK AO2 PK
                 WND 28033/1446 SLP185 VIRGA T11391239 51032 $ =
2019-01-21 08:51 METAR KEWR 211351Z 28021G26KT 10SM SCT038 SCT090 M15/M24 A3005 RMK AO2 PK WND
                 32028/1314 SLP176 T11501239 $ =
2019-01-21 07:51 METAR KEWR 211251Z 29021G29KT 10SM SCT038 SCT090 M16/M24 A3003 RMK AO2 PK WND
                 28034/1203 SLP167 VIRGA T11561244 $ =
2019-01-21 06:51 METAR KEWR 211151Z 30022G29KT 10SM BKN039 M15/M24 A2999 RMK AO2 PK WND
                 28035/1138 SLP153 70018 T11501239 11111 21150 53030 $ =
2019-01-21 05:51 METAR KEWR 211051Z 30016G28KT 10SM SCT036 M14/M23 A2995 RMK AO2 PK WND
                 29032/1011 SLP142 T11441233 $ =
2019-01-21 04:51 METAR KEWR 210951Z 29022G33KT 10SM FEW036 M14/M23 A2992 RMK AO2 PK WND
                 29037/0904 SLP131 T11391228 $ =
2019-01-21 03:51 METAR KEWR 210851Z 29024G33KT 10SM FEW038 M13/M22 A2990 RMK AO2 PK WND
                 28034/0802 SLP124 T11331217 51023 $ =
2019-01-21 02:51 METAR KEWR 210751Z 30022G33KT 10SM SCT039 M13/M21 A2989 RMK AO2 PK WND
                 28033/0742 SLP121 T11281206 $ =
2019-01-21 01:51 METAR KEWR 210651Z 29017G24KT 10SM BKN039 M12/M19 A2986 RMK AO2 PK WND
                 28031/0615 SLP111 T11171194 $ =
2019-01-21 00:51 METAR KEWR 210551Z 29020G27KT 10SM BKN038 M11/M19 A2983 RMK AO2 PK WND
                 30030/0541 SLP101 T11111189 11078 21111 51033 $ =
2019-01-20 23:51 METAR KEWR 210451Z 30019G28KT 10SM SCT038 M10/M18 A2980 RMK AO2 PK WND
                 29034/0416 SLP091 T11001178 400501100 $ =
2019-01-20 22:51 METAR KEWR 210351Z 30016KT 10SM BKN034 M09/M17 A2977 RMK AO2 PK WND 31032/0336
                 SLP081 T10941167 $ =
2019-01-20 21:51 METAR KEWR 210251Z 31020G26KT 10SM BKN032 M09/M16 A2973 RMK AO2 PK WND
                 29029/0230 SLP068 T10891161 51034 $ =
2019-01-20 20:51 METAR KEWR 210151Z 32018G27KT 10SM SCT035 M09/M16 A2971 RMK AO2 PK WND
                 30033/0104 SLP059 T10891161 $ =
2019-01-20 19:51 METAR KEWR 210051Z 30018G26KT 10SM FEW035 M09/M16 A2968 RMK AO2 PK WND
                 33037/0012 SLP051 T10891156 $ =
2019-01-20 18:51 METAR KEWR 202351Z 30019G30KT 10SM FEW035 SCT150 M08/M14 A2963 RMK AO2 PK WND
                 30036/2315 SLP034 T10781144 10050 21078 51059 $ =
2019-01-20 17:51 METAR KEWR 202251Z 31022G34KT 10SM SCT032 SCT150 M07/M13 A2959 RMK AO2 PK WND
                 29034/2208 SLP019 T10671133 $ =

Support USWX by starting your Amazon purchase here.